Time;durP1;ratioP1;P1;durP2;ratioP2;P2;SDS_P1;SDS_P2;PMS_P1;PMS_P2;Temp;Humidity;BMP_temperature;BMP_pressure;BME280_temperature;BME280_humidity;BME280_pressure;Samples;Min_cycle;Max_cycle;Signal;HPM_P1;HPM_P2
2023/07/15 00:01:36;;;;;;;2.80;2.33;;;24.50;93.60;;;;;;5051144;28;20838;-65
2023/07/15 00:04:02;;;;;;;4.23;2.37;;;24.40;94.00;;;;;;5050398;28;20201;-65
2023/07/15 00:06:28;;;;;;;2.40;2.20;;;24.30;93.80;;;;;;5050919;28;20418;-65
2023/07/15 00:08:55;;;;;;;3.93;2.60;;;24.20;93.80;;;;;;5050711;28;20418;-65
2023/07/15 00:11:33;;;;;;;2.60;2.40;;;24.30;93.30;;;;;;5050343;28;20734;-65
2023/07/15 00:13:59;;;;;;;5.87;2.97;;;24.30;93.00;;;;;;5050513;28;20424;-65
2023/07/15 00:16:26;;;;;;;3.20;1.87;;;24.30;93.50;;;;;;5050635;28;20430;-65
2023/07/15 00:18:52;;;;;;;5.67;2.07;;;24.30;93.60;;;;;;5050547;28;20410;-65
2023/07/15 00:21:23;;;;;;;9.73;2.33;;;24.30;93.60;;;;;;5050258;28;20527;-65
2023/07/15 00:23:55;;;;;;;2.67;2.23;;;24.30;93.70;;;;;;5050400;28;20584;-65
2023/07/15 00:26:22;;;;;;;3.10;2.30;;;24.30;93.40;;;;;;5050326;28;20409;-64
2023/07/15 00:28:49;;;;;;;2.43;2.23;;;24.30;93.10;;;;;;5050029;28;20812;-64
2023/07/15 00:31:17;;;;;;;5.63;1.90;;;24.30;93.00;;;;;;5048612;28;20461;-64
2023/07/15 00:33:44;;;;;;;4.50;2.07;;;24.30;93.20;;;;;;5050111;28;20426;-64
2023/07/15 00:36:11;;;;;;;2.37;2.07;;;24.30;93.20;;;;;;5049953;28;20426;-65
2023/07/15 00:38:37;;;;;;;7.33;3.57;;;24.30;93.00;;;;;;5049999;28;20521;-64
2023/07/15 00:41:05;;;;;;;2.43;2.23;;;24.20;93.00;;;;;;5049833;28;20473;-66
2023/07/15 00:43:58;;;;;;;2.70;2.50;;;24.20;92.90;;;;;;5050201;28;20422;-64
2023/07/15 00:46:34;;;;;;;3.57;2.00;;;24.10;93.10;;;;;;5049918;28;20402;-64
2023/07/15 00:49:15;;;;;;;3.77;2.23;;;24.00;92.80;;;;;;5049672;28;20401;-64
2023/07/15 00:52:01;;;;;;;2.10;1.97;;;23.90;93.00;;;;;;5049943;28;20422;-64
2023/07/15 00:54:28;;;;;;;3.53;1.97;;;24.00;92.40;;;;;;5048594;28;20418;-65
2023/07/15 00:56:56;;;;;;;2.10;1.87;;;24.00;92.80;;;;;;5049715;28;20929;-64
2023/07/15 00:59:22;;;;;;;4.90;1.93;;;23.90;92.40;;;;;;5049601;28;20421;-64
2023/07/15 01:01:49;;;;;;;2.03;1.67;;;23.90;92.50;;;;;;5049476;28;20473;-64
2023/07/15 01:04:15;;;;;;;2.10;1.90;;;23.90;92.20;;;;;;5048020;28;20779;-64
2023/07/15 01:06:45;;;;;;;4.20;1.83;;;23.90;92.00;;;;;;5049606;28;20417;-65
2023/07/15 01:09:11;;;;;;;2.33;1.77;;;23.80;92.30;;;;;;5049648;28;20420;-64
2023/07/15 01:11:37;;;;;;;3.67;1.73;;;23.70;92.00;;;;;;5050090;28;20437;-64
2023/07/15 01:14:04;;;;;;;3.30;1.97;;;23.70;92.10;;;;;;5049330;28;20790;-65
2023/07/15 01:16:32;;;;;;;3.27;1.93;;;23.70;92.30;;;;;;5048956;28;20187;-65
2023/07/15 01:18:57;;;;;;;2.10;1.60;;;23.70;92.10;;;;;;5049397;28;20468;-65
2023/07/15 01:21:25;;;;;;;7.93;2.07;;;23.60;92.10;;;;;;5049492;28;20500;-65
2023/07/15 01:23:51;;;;;;;1.73;1.63;;;23.60;91.60;;;;;;5049625;28;20229;-65
2023/07/15 01:26:17;;;;;;;2.40;1.70;;;23.80;91.50;;;;;;5049971;28;20511;-65
2023/07/15 01:28:42;;;;;;;3.70;1.60;;;23.80;91.50;;;;;;5049730;28;20210;-65
2023/07/15 01:31:08;;;;;;;1.60;1.50;;;23.90;91.00;;;;;;5049768;28;20241;-65
2023/07/15 01:33:34;;;;;;;2.10;1.73;;;24.10;90.60;;;;;;5049671;28;20214;-65
2023/07/15 01:35:59;;;;;;;1.83;1.70;;;24.10;91.00;;;;;;5049798;28;20189;-64
2023/07/15 01:38:25;;;;;;;1.60;1.33;;;24.00;90.80;;;;;;5049389;28;20678;-65
2023/07/15 01:40:51;;;;;;;6.33;1.80;;;24.00;90.60;;;;;;5049058;28;20214;-65
2023/07/15 01:43:17;;;;;;;1.83;1.70;;;24.10;90.70;;;;;;5047376;28;20203;-65
2023/07/15 01:45:46;;;;;;;5.37;1.80;;;24.10;90.70;;;;;;5048905;28;20191;-65
2023/07/15 01:48:11;;;;;;;2.17;1.67;;;24.20;90.00;;;;;;5049123;28;20415;-65
2023/07/15 01:50:37;;;;;;;2.53;1.67;;;24.20;90.20;;;;;;5048796;28;20440;-65
2023/07/15 01:53:03;;;;;;;2.17;1.53;;;24.10;90.50;;;;;;5048577;28;20261;-65
2023/07/15 01:55:28;;;;;;;2.17;1.73;;;24.20;90.10;;;;;;5048661;28;20201;-66
2023/07/15 01:57:54;;;;;;;1.43;1.33;;;24.10;90.20;;;;;;5048615;28;20837;-65
2023/07/15 02:00:20;;;;;;;3.40;1.63;;;24.10;90.30;;;;;;5048441;28;20623;-65
2023/07/15 02:02:46;;;;;;;1.80;1.40;;;24.00;91.30;;;;;;5048595;28;20200;-64
2023/07/15 02:05:12;;;;;;;2.03;1.30;;;24.00;90.60;;;;;;5048510;28;20509;-64
2023/07/15 02:07:37;;;;;;;1.83;1.40;;;24.10;90.00;;;;;;5048396;28;20513;-66
2023/07/15 02:10:03;;;;;;;1.90;1.60;;;24.20;89.70;;;;;;5048349;28;20435;-65
2023/07/15 02:12:29;;;;;;;3.20;1.50;;;24.20;90.10;;;;;;5048224;28;20215;-64
2023/07/15 02:14:55;;;;;;;2.90;1.60;;;24.20;89.90;;;;;;5048333;28;20454;-64
2023/07/15 02:17:22;;;;;;;2.07;1.70;;;24.20;89.70;;;;;;5048281;28;20750;-64
2023/07/15 02:19:49;;;;;;;3.60;1.57;;;24.20;89.90;;;;;;5048218;28;20206;-65
2023/07/15 02:22:14;;;;;;;3.10;1.57;;;24.10;89.90;;;;;;5048099;28;20571;-64
2023/07/15 02:24:40;;;;;;;4.93;1.50;;;24.20;89.60;;;;;;5048262;28;20992;-66
2023/07/15 02:27:05;;;;;;;3.63;1.50;;;24.20;89.60;;;;;;5047937;28;20229;-66
2023/07/15 02:29:31;;;;;;;1.63;1.50;;;24.20;90.30;;;;;;5048028;28;20203;-66
2023/07/15 02:31:57;;;;;;;1.70;1.60;;;24.10;90.20;;;;;;5048197;28;20206;-65
2023/07/15 02:34:22;;;;;;;2.10;1.60;;;24.00;90.40;;;;;;5048228;28;20709;-65
2023/07/15 02:36:48;;;;;;;2.10;1.53;;;24.00;90.70;;;;;;5048300;28;20675;-65
2023/07/15 02:39:14;;;;;;;8.80;2.00;;;23.90;90.90;;;;;;5048165;28;20192;-65
2023/07/15 02:41:39;;;;;;;1.93;1.60;;;23.80;91.00;;;;;;5048135;28;20226;-65
2023/07/15 02:44:05;;;;;;;2.73;1.40;;;23.80;91.00;;;;;;5047987;28;20266;-65
2023/07/15 02:46:31;;;;;;;2.13;1.93;;;23.80;91.10;;;;;;5048026;28;20185;-65
2023/07/15 02:48:56;;;;;;;2.50;1.93;;;23.70;91.20;;;;;;5048375;28;20178;-65
2023/07/15 02:51:23;;;;;;;2.10;1.90;;;23.70;91.40;;;;;;5048271;28;20207;-65
2023/07/15 02:53:50;;;;;;;2.30;1.63;;;23.70;91.30;;;;;;5047970;28;20252;-65
2023/07/15 02:56:16;;;;;;;3.47;2.00;;;23.70;91.10;;;;;;5047868;28;20801;-65
2023/07/15 02:58:42;;;;;;;2.23;2.03;;;23.70;91.30;;;;;;5047848;28;20418;-65
2023/07/15 03:01:08;;;;;;;1.20;1.00;;;23.70;91.20;;;;;;5047741;28;20223;-65
2023/07/15 03:03:34;;;;;;;3.73;1.97;;;23.70;91.50;;;;;;5047959;28;20793;-65
2023/07/15 03:06:00;;;;;;;2.20;1.70;;;23.60;91.30;;;;;;5047914;28;20243;-65
2023/07/15 03:08:25;;;;;;;1.83;1.50;;;23.60;91.40;;;;;;5047686;28;20673;-65
2023/07/15 03:10:51;;;;;;;2.97;2.10;;;23.60;91.30;;;;;;5047845;28;20483;-65
2023/07/15 03:13:17;;;;;;;4.03;1.70;;;23.50;91.30;;;;;;5047684;28;20683;-65
2023/07/15 03:15:42;;;;;;;2.37;1.63;;;23.50;91.30;;;;;;5047964;28;20202;-65
2023/07/15 03:18:08;;;;;;;2.33;1.50;;;23.50;91.60;;;;;;5047685;28;20215;-65
2023/07/15 03:20:34;;;;;;;3.97;1.50;;;23.50;91.70;;;;;;5048048;28;20211;-65
2023/07/15 03:22:59;;;;;;;2.50;1.87;;;23.40;91.80;;;;;;5047757;28;20685;-64
2023/07/15 03:25:25;;;;;;;3.13;1.70;;;23.30;91.90;;;;;;5047675;28;20196;-65
2023/07/15 03:27:51;;;;;;;5.03;2.07;;;23.30;91.80;;;;;;5046311;28;20595;-65
2023/07/15 03:30:18;;;;;;;6.23;1.87;;;23.30;91.90;;;;;;5047741;28;20343;-65
2023/07/15 03:32:44;;;;;;;2.23;1.73;;;23.30;92.00;;;;;;5047536;28;20541;-66
2023/07/15 03:35:10;;;;;;;5.13;1.90;;;23.30;92.10;;;;;;5047535;28;20418;-65
2023/07/15 03:37:37;;;;;;;1.97;1.77;;;23.30;92.30;;;;;;5047512;28;20424;-65
2023/07/15 03:40:08;;;;;;;6.13;2.33;;;23.20;92.30;;;;;;5049517;28;20279;-65
2023/07/15 03:42:34;;;;;;;2.50;1.83;;;23.30;92.40;;;;;;5051494;28;20452;-64
2023/07/15 03:45:00;;;;;;;2.33;2.07;;;23.40;92.30;;;;;;5051437;28;20421;-64
2023/07/15 03:47:25;;;;;;;4.77;1.60;;;23.40;92.70;;;;;;5049985;28;20432;-65
2023/07/15 03:49:51;;;;;;;4.30;2.10;;;23.40;92.60;;;;;;5051332;28;20541;-65
2023/07/15 03:52:17;;;;;;;3.13;1.90;;;23.40;92.70;;;;;;5051320;28;20214;-64
2023/07/15 03:54:43;;;;;;;3.67;2.13;;;23.40;93.00;;;;;;5051066;28;20600;-64
2023/07/15 03:57:09;;;;;;;11.73;2.40;;;23.40;92.80;;;;;;5051091;28;20432;-65
2023/07/15 03:59:35;;;;;;;2.13;1.93;;;23.40;93.00;;;;;;5051025;28;20440;-66
2023/07/15 04:02:01;;;;;;;3.40;2.13;;;23.30;93.00;;;;;;5049705;28;20455;-66
2023/07/15 04:04:27;;;;;;;2.67;2.10;;;23.40;93.00;;;;;;5051280;28;20426;-66
2023/07/15 04:06:54;;;;;;;2.30;2.10;;;23.50;92.90;;;;;;5051160;28;20417;-66
2023/07/15 04:09:21;;;;;;;3.53;2.10;;;23.60;92.90;;;;;;5051042;28;20212;-66
2023/07/15 04:11:46;;;;;;;2.63;2.07;;;23.50;93.00;;;;;;5050865;28;20488;-73
2023/07/15 04:14:12;;;;;;;4.77;2.50;;;23.60;92.80;;;;;;5049794;28;20502;-73
2023/07/15 04:16:38;;;;;;;4.90;2.63;;;23.50;92.90;;;;;;5050984;28;20690;-74
2023/07/15 04:19:05;;;;;;;2.67;2.47;;;23.50;93.10;;;;;;5050824;28;20276;-73
2023/07/15 04:21:30;;;;;;;2.53;2.30;;;23.60;92.80;;;;;;5050667;28;20491;-73
2023/07/15 04:23:57;;;;;;;4.57;2.40;;;23.60;92.80;;;;;;5049780;28;20428;-74
2023/07/15 04:26:23;;;;;;;2.23;2.03;;;23.70;92.60;;;;;;5051156;28;20771;-73
2023/07/15 04:28:49;;;;;;;2.40;2.20;;;23.80;92.60;;;;;;5051143;28;20667;-74
2023/07/15 04:31:16;;;;;;;2.83;2.10;;;23.80;92.60;;;;;;5051280;28;20557;-76
2023/07/15 04:33:44;;;;;;;8.53;2.40;;;23.80;92.60;;;;;;5051502;28;20421;-73
2023/07/15 04:36:09;;;;;;;2.47;2.23;;;23.80;92.50;;;;;;5051417;28;20956;-74
2023/07/15 04:38:35;;;;;;;4.53;2.43;;;23.80;92.60;;;;;;5049791;28;20433;-73
2023/07/15 04:41:00;;;;;;;3.83;2.60;;;23.80;92.60;;;;;;5049511;28;20250;-73
2023/07/15 04:43:26;;;;;;;3.00;2.53;;;23.90;92.60;;;;;;5049687;28;20187;-73
2023/07/15 04:45:52;;;;;;;4.93;2.50;;;24.00;92.30;;;;;;5051045;28;20181;-72
2023/07/15 04:48:17;;;;;;;4.23;2.17;;;24.10;92.40;;;;;;5032839;28;20308;-73
2023/07/15 04:50:45;;;;;;;2.43;2.17;;;24.10;92.60;;;;;;5050627;28;20184;-72
2023/07/15 04:53:10;;;;;;;4.53;2.80;;;24.10;93.00;;;;;;5050570;28;20203;-72
2023/07/15 04:55:36;;;;;;;2.73;2.10;;;24.10;93.30;;;;;;5050491;28;20559;-73
2023/07/15 04:58:01;;;;;;;2.60;2.40;;;24.10;93.10;;;;;;5050386;28;20272;-73
2023/07/15 05:00:27;;;;;;;3.10;2.40;;;24.20;93.80;;;;;;5050152;28;20692;-73
2023/07/15 05:02:53;;;;;;;2.63;2.43;;;24.30;93.50;;;;;;5048780;28;20208;-73
2023/07/15 05:05:19;;;;;;;2.80;2.30;;;24.30;93.90;;;;;;5050141;28;20590;-73
2023/07/15 05:07:44;;;;;;;2.30;2.10;;;24.30;94.00;;;;;;5049102;28;20795;-74
2023/07/15 05:10:11;;;;;;;2.90;2.27;;;24.30;94.30;;;;;;5048453;28;20256;-73
2023/07/15 05:12:37;;;;;;;3.37;2.17;;;24.40;93.90;;;;;;5050297;28;20695;-74
2023/07/15 05:15:03;;;;;;;3.10;2.37;;;24.50;93.70;;;;;;5049823;28;20468;-73
2023/07/15 05:17:29;;;;;;;3.93;2.73;;;24.50;93.80;;;;;;5048808;28;20428;-73
2023/07/15 05:19:54;;;;;;;2.80;2.47;;;24.60;93.90;;;;;;5048352;28;20563;-74
2023/07/15 05:22:20;;;;;;;2.90;2.60;;;24.70;93.70;;;;;;5050098;28;20197;-74
2023/07/15 05:24:48;;;;;;;2.47;2.27;;;24.80;93.70;;;;;;5049632;28;20183;-74
2023/07/15 05:27:14;;;;;;;5.37;2.60;;;24.90;93.70;;;;;;5048427;28;20192;-74
2023/07/15 05:29:39;;;;;;;2.70;2.40;;;25.00;93.00;;;;;;5049988;28;20455;-73
2023/07/15 05:32:05;;;;;;;2.50;2.03;;;25.10;93.70;;;;;;5048562;28;20476;-73
2023/07/15 05:34:31;;;;;;;2.73;2.47;;;25.20;93.90;;;;;;5049251;28;20224;-73
2023/07/15 05:36:56;;;;;;;4.07;2.47;;;25.20;93.90;;;;;;5049829;28;20460;-74
2023/07/15 05:39:22;;;;;;;3.03;2.60;;;25.30;93.90;;;;;;5031612;28;20253;-74
2023/07/15 05:41:48;;;;;;;2.50;2.30;;;25.30;93.80;;;;;;5048266;28;20317;-73
2023/07/15 05:44:13;;;;;;;3.20;2.63;;;25.30;94.10;;;;;;5049966;28;20188;-73
2023/07/15 05:46:39;;;;;;;2.60;2.30;;;25.40;93.40;;;;;;5049920;28;20192;-73
2023/07/15 05:49:04;;;;;;;2.77;2.30;;;25.50;93.60;;;;;;5031782;28;20196;-74
2023/07/15 05:51:31;;;;;;;3.07;2.50;;;25.60;93.80;;;;;;5048356;28;20294;-73
2023/07/15 05:53:57;;;;;;;2.73;2.50;;;25.70;93.30;;;;;;5049305;28;20192;-73
2023/07/15 05:56:23;;;;;;;2.90;2.60;;;25.80;93.70;;;;;;5049081;28;20910;-73
2023/07/15 05:58:51;;;;;;;5.73;2.80;;;25.90;93.30;;;;;;5047514;28;20574;-73
2023/07/15 06:01:17;;;;;;;3.20;2.50;;;26.00;92.60;;;;;;5047682;28;20484;-73
2023/07/15 06:03:43;;;;;;;2.50;2.30;;;26.10;92.60;;;;;;5047458;28;20418;-73
2023/07/15 06:06:09;;;;;;;3.93;2.60;;;26.20;93.10;;;;;;5049847;28;20187;-73
2023/07/15 06:08:35;;;;;;;4.23;2.70;;;26.40;93.90;;;;;;5048171;28;20265;-73
2023/07/15 06:11:00;;;;;;;2.60;2.40;;;26.50;94.10;;;;;;5049778;28;20476;-73
2023/07/15 06:13:26;;;;;;;3.50;2.60;;;26.60;93.50;;;;;;5049241;28;20680;-73
2023/07/15 06:15:52;;;;;;;3.93;2.40;;;26.60;93.00;;;;;;5048795;28;20647;-73
2023/07/15 06:18:18;;;;;;;4.53;2.53;;;26.70;93.10;;;;;;5048558;28;20191;-73
2023/07/15 06:20:46;;;;;;;2.60;2.40;;;26.80;93.50;;;;;;5046935;28;20474;-73
2023/07/15 06:23:13;;;;;;;4.40;2.20;;;26.90;93.10;;;;;;5048276;28;20215;-73
2023/07/15 06:25:39;;;;;;;2.37;2.17;;;27.00;93.40;;;;;;5048654;28;20569;-73
2023/07/15 06:28:04;;;;;;;2.70;2.50;;;27.10;93.30;;;;;;5048250;28;20871;-72
2023/07/15 06:30:30;;;;;;;2.57;2.37;;;27.10;92.80;;;;;;5048146;28;20446;-72
2023/07/15 06:32:56;;;;;;;3.67;2.70;;;27.10;92.30;;;;;;5048553;28;20281;-73
2023/07/15 06:35:21;;;;;;;2.97;2.37;;;27.20;92.70;;;;;;5048243;28;20191;-72
2023/07/15 06:37:50;;;;;;;2.50;2.30;;;27.30;92.70;;;;;;5046848;28;20214;-73
2023/07/15 06:40:17;;;;;;;2.73;2.53;;;27.50;92.50;;;;;;5048000;28;20699;-73
2023/07/15 06:42:44;;;;;;;2.00;1.90;;;27.60;92.30;;;;;;5048042;28;20445;-73
2023/07/15 06:45:10;;;;;;;3.77;2.27;;;27.70;92.00;;;;;;5046579;28;20426;-72
2023/07/15 06:47:36;;;;;;;2.50;2.30;;;27.80;91.70;;;;;;5048170;28;20918;-74
2023/07/15 06:50:02;;;;;;;2.60;2.40;;;27.90;92.40;;;;;;5029932;28;20437;-72
2023/07/15 06:52:27;;;;;;;4.47;2.70;;;27.90;91.50;;;;;;5047838;28;20534;-73
2023/07/15 06:54:53;;;;;;;4.27;2.50;;;28.00;91.80;;;;;;5029813;28;20698;-74
2023/07/15 06:57:19;;;;;;;2.80;2.57;;;28.10;91.90;;;;;;5046816;28;20261;-73
2023/07/15 06:59:44;;;;;;;3.00;2.70;;;28.10;91.70;;;;;;5013406;28;20284;-73
2023/07/15 07:02:10;;;;;;;2.50;2.30;;;28.20;91.40;;;;;;5046889;28;20212;-73
2023/07/15 07:04:36;;;;;;;3.23;2.73;;;28.10;91.50;;;;;;5048483;28;20180;-73
2023/07/15 07:07:01;;;;;;;6.03;2.37;;;28.00;91.50;;;;;;5046459;28;20258;-73
2023/07/15 07:09:27;;;;;;;3.23;2.60;;;28.00;92.40;;;;;;5046557;28;20180;-73
2023/07/15 07:11:52;;;;;;;3.07;2.87;;;28.20;92.70;;;;;;5047576;28;20200;-74
2023/07/15 07:14:18;;;;;;;3.23;2.30;;;28.20;92.50;;;;;;5048642;28;20274;-74
2023/07/15 07:16:44;;;;;;;7.47;2.33;;;28.20;92.30;;;;;;5050258;28;20750;-71
2023/07/15 07:19:09;;;;;;;2.97;2.10;;;28.10;91.80;;;;;;5050779;28;20183;-70
2023/07/15 07:21:35;;;;;;;3.80;2.30;;;28.30;92.50;;;;;;5032164;28;20481;-70
2023/07/15 07:24:01;;;;;;;6.13;2.77;;;28.30;92.00;;;;;;5048890;28;20191;-69
2023/07/15 07:26:26;;;;;;;3.07;2.60;;;28.20;91.90;;;;;;5048910;28;20278;-69
2023/07/15 07:28:55;;;;;;;4.10;3.13;;;28.40;92.90;;;;;;5048530;28;20211;-68
2023/07/15 07:31:21;;;;;;;2.97;2.53;;;28.30;92.10;;;;;;5049993;28;20282;-69
2023/07/15 07:33:47;;;;;;;2.60;2.40;;;28.30;91.90;;;;;;5048844;28;20462;-69
2023/07/15 07:36:12;;;;;;;2.70;2.50;;;28.40;92.10;;;;;;5050059;28;20434;-69
2023/07/15 07:38:38;;;;;;;5.87;2.80;;;28.50;92.70;;;;;;5050027;28;20184;-69
2023/07/15 07:41:11;;;;;;;8.43;2.40;;;28.60;92.40;;;;;;5049803;28;20269;-69
2023/07/15 07:43:38;;;;;;;2.53;2.33;;;28.60;91.00;;;;;;5050059;28;20176;-68
2023/07/15 07:46:05;;;;;;;2.57;2.37;;;28.70;92.00;;;;;;5049903;28;20832;-69
2023/07/15 07:48:31;;;;;;;5.57;2.27;;;28.70;91.70;;;;;;5048308;28;20425;-69
2023/07/15 07:50:59;;;;;;;3.23;2.60;;;28.70;91.50;;;;;;5048233;28;20426;-69
2023/07/15 07:53:24;;;;;;;3.97;2.30;;;28.80;91.70;;;;;;5049624;28;20188;-69
2023/07/15 07:55:50;;;;;;;2.37;2.17;;;28.90;91.60;;;;;;5049746;28;20453;-70
2023/07/15 07:58:17;;;;;;;2.73;2.50;;;28.90;91.10;;;;;;5049613;28;20423;-70
2023/07/15 08:00:43;;;;;;;2.43;2.23;;;29.00;91.30;;;;;;5049473;28;20577;-69
2023/07/15 08:03:09;;;;;;;3.00;2.70;;;29.10;91.60;;;;;;5047864;28;20438;-69
2023/07/15 08:05:41;;;;;;;4.97;2.50;;;29.10;91.00;;;;;;5049351;28;20443;-69
2023/07/15 08:08:07;;;;;;;2.60;2.13;;;29.10;91.20;;;;;;5049511;28;20410;-69
2023/07/15 08:10:32;;;;;;;2.77;2.47;;;29.30;91.20;;;;;;5049285;28;20799;-69
2023/07/15 08:12:58;;;;;;;2.90;2.50;;;29.50;90.90;;;;;;5049248;28;20211;-71
2023/07/15 08:15:23;;;;;;;2.80;2.50;;;29.60;90.10;;;;;;5049366;28;20187;-69
2023/07/15 08:17:49;;;;;;;2.80;2.60;;;29.60;88.30;;;;;;5047864;28;20187;-69
2023/07/15 08:20:15;;;;;;;2.33;2.13;;;29.70;90.40;;;;;;5049063;28;20622;-69
2023/07/15 08:22:40;;;;;;;2.63;2.43;;;29.70;87.30;;;;;;5031398;28;20932;-70
2023/07/15 08:25:06;;;;;;;3.43;2.73;;;29.80;88.40;;;;;;5048034;28;20218;-65
2023/07/15 08:27:32;;;;;;;4.33;2.70;;;29.90;88.40;;;;;;5049770;28;20211;-65
2023/07/15 08:29:57;;;;;;;3.27;2.90;;;29.90;88.40;;;;;;5049739;28;20444;-66
2023/07/15 08:32:23;;;;;;;2.77;2.57;;;30.00;89.00;;;;;;5049613;28;20280;-66
2023/07/15 08:34:59;;;;;;;2.63;2.23;;;30.10;87.50;;;;;;5031692;28;20193;-66
2023/07/15 08:37:26;;;;;;;2.80;2.60;;;30.10;87.20;;;;;;5048479;28;20184;-66
2023/07/15 08:39:52;;;;;;;2.57;2.37;;;30.20;87.10;;;;;;5049582;28;20473;-66
2023/07/15 08:42:21;;;;;;;3.53;2.87;;;30.30;87.20;;;;;;5049539;28;20942;-66
2023/07/15 08:44:48;;;;;;;4.97;2.27;;;30.50;88.40;;;;;;5049472;28;20446;-64
2023/07/15 08:47:24;;;;;;;2.80;2.20;;;30.50;87.70;;;;;;5049572;28;20414;-66
2023/07/15 08:49:53;;;;;;;2.77;2.20;;;30.70;88.00;;;;;;5049432;28;20596;-65
2023/07/15 08:52:21;;;;;;;3.23;2.50;;;30.80;85.20;;;;;;5049321;28;20955;-65
2023/07/15 08:54:51;;;;;;;3.87;2.23;;;30.90;86.30;;;;;;5049057;28;20422;-67
2023/07/15 08:57:18;;;;;;;6.03;2.23;;;31.10;84.10;;;;;;5048908;28;20433;-66
2023/07/15 08:59:54;;;;;;;5.10;2.60;;;31.20;84.70;;;;;;5048843;28;20414;-66
2023/07/15 09:02:20;;;;;;;2.40;2.20;;;31.30;84.90;;;;;;5047121;28;20446;-67
2023/07/15 09:04:46;;;;;;;4.67;2.47;;;31.40;83.00;;;;;;5048833;28;20828;-67
2023/07/15 09:07:11;;;;;;;1.97;1.87;;;31.60;83.20;;;;;;5048661;28;20622;-67
2023/07/15 09:09:40;;;;;;;2.63;2.43;;;31.70;81.00;;;;;;5047344;28;20215;-66
2023/07/15 09:12:09;;;;;;;4.67;2.33;;;31.80;81.80;;;;;;5048393;28;20216;-67
2023/07/15 09:14:43;;;;;;;2.90;2.00;;;31.90;81.00;;;;;;5048323;28;20898;-66
2023/07/15 09:17:08;;;;;;;3.10;2.07;;;31.90;79.20;;;;;;5046855;28;20414;-65
2023/07/15 09:19:35;;;;;;;6.60;2.50;;;32.00;80.60;;;;;;5048423;28;20418;-66
2023/07/15 09:22:04;;;;;;;2.30;1.67;;;32.10;79.40;;;;;;5048722;28;20216;-65
2023/07/15 09:24:32;;;;;;;2.60;2.40;;;32.20;80.50;;;;;;5048605;28;20410;-66
2023/07/15 09:26:59;;;;;;;1.90;1.73;;;32.40;80.50;;;;;;5047228;28;20490;-64
2023/07/15 09:29:25;;;;;;;6.93;2.43;;;32.40;80.60;;;;;;5048410;28;20485;-66
2023/07/15 09:31:51;;;;;;;3.80;1.90;;;32.60;79.40;;;;;;5048534;28;20473;-67
2023/07/15 09:34:18;;;;;;;3.33;2.47;;;32.70;79.10;;;;;;5048730;28;20275;-66
2023/07/15 09:36:44;;;;;;;2.40;2.20;;;32.80;78.30;;;;;;5047970;28;20192;-65
2023/07/15 09:39:15;;;;;;;2.70;2.50;;;32.90;76.20;;;;;;5046801;28;20426;-66
2023/07/15 09:41:44;;;;;;;2.10;2.00;;;32.90;75.90;;;;;;5047921;28;20523;-65
2023/07/15 09:44:10;;;;;;;2.03;1.93;;;32.90;74.80;;;;;;5048344;28;21024;-65
2023/07/15 09:46:38;;;;;;;3.83;2.00;;;33.10;74.30;;;;;;5048026;28;20414;-67
2023/07/15 09:49:04;;;;;;;1.80;1.70;;;33.10;73.30;;;;;;5047746;28;20422;-65
2023/07/15 09:51:30;;;;;;;2.13;2.03;;;33.10;73.90;;;;;;5047726;28;20442;-66
2023/07/15 09:53:58;;;;;;;2.07;1.70;;;33.20;75.60;;;;;;5047639;28;20184;-67
2023/07/15 09:56:37;;;;;;;2.30;2.10;;;33.30;75.60;;;;;;5047581;28;20513;-66
2023/07/15 09:59:08;;;;;;;3.77;2.17;;;33.40;73.50;;;;;;5047550;28;20441;-65
2023/07/15 10:01:43;;;;;;;2.47;2.10;;;33.50;73.10;;;;;;5047441;28;20470;-66
2023/07/15 10:04:35;;;;;;;2.37;2.27;;;33.40;73.80;;;;;;5045678;28;20508;-66
2023/07/15 10:07:04;;;;;;;3.63;2.13;;;33.50;73.40;;;;;;5047386;28;20416;-66
2023/07/15 10:09:33;;;;;;;2.00;1.87;;;33.50;74.10;;;;;;5047121;28;20425;-66
2023/07/15 10:12:00;;;;;;;2.43;2.23;;;33.60;73.70;;;;;;5047201;28;20822;-66
2023/07/15 10:14:28;;;;;;;2.40;2.10;;;33.70;74.10;;;;;;5047034;28;20453;-67
2023/07/15 10:17:11;;;;;;;2.17;1.87;;;33.80;73.50;;;;;;5047001;28;20422;-66
2023/07/15 10:20:04;;;;;;;2.30;2.17;;;33.90;73.50;;;;;;5047004;28;21068;-67
2023/07/15 10:22:34;;;;;;;1.87;1.77;;;34.10;75.00;;;;;;5046935;28;20508;-67
2023/07/15 10:25:02;;;;;;;2.97;2.30;;;34.20;73.40;;;;;;5047412;28;20927;-66
2023/07/15 10:27:29;;;;;;;2.33;2.13;;;34.40;74.30;;;;;;5047648;28;20410;-66
2023/07/15 10:30:26;;;;;;;2.37;1.97;;;34.50;72.90;;;;;;5047041;28;20465;-68
2023/07/15 10:32:58;;;;;;;2.50;2.13;;;34.60;72.20;;;;;;5047530;28;21103;-67
2023/07/15 10:35:26;;;;;;;4.00;2.30;;;34.50;71.80;;;;;;5047267;28;20417;-66
2023/07/15 10:37:51;;;;;;;2.17;2.07;;;34.50;71.00;;;;;;5047213;28;20449;-66
2023/07/15 10:40:54;;;;;;;2.80;2.07;;;34.50;71.40;;;;;;5047226;28;20505;-66
2023/07/15 10:43:35;;;;;;;5.57;2.53;;;34.60;71.20;;;;;;5047372;28;20301;-66
2023/07/15 10:46:19;;;;;;;2.87;2.60;;;34.60;71.30;;;;;;5047224;28;20401;-65
2023/07/15 10:48:45;;;;;;;2.00;1.80;;;34.40;70.60;;;;;;5048424;28;20877;-67
2023/07/15 10:51:11;;;;;;;2.63;2.00;;;34.50;71.90;;;;;;5049972;28;20499;-66
2023/07/15 10:53:38;;;;;;;2.30;2.10;;;34.70;71.60;;;;;;5051438;28;20184;-66
2023/07/15 10:56:11;;;;;;;2.40;2.20;;;34.70;71.60;;;;;;5050709;28;20417;-66
2023/07/15 10:58:38;;;;;;;6.20;2.43;;;34.80;70.20;;;;;;5050526;28;20418;-66
2023/07/15 11:01:08;;;;;;;3.03;1.90;;;34.90;69.50;;;;;;5050434;28;20876;-66
2023/07/15 11:03:39;;;;;;;2.07;1.97;;;35.00;69.60;;;;;;5050431;28;20418;-66
2023/07/15 11:06:05;;;;;;;3.90;2.23;;;35.20;69.00;;;;;;5050696;28;20469;-66
2023/07/15 11:08:32;;;;;;;1.53;1.43;;;35.20;67.30;;;;;;5050683;28;20481;-65
2023/07/15 11:11:03;;;;;;;2.17;1.73;;;35.30;67.50;;;;;;5050592;28;20462;-66
2023/07/15 11:13:29;;;;;;;1.97;1.80;;;35.10;67.40;;;;;;5050873;28;20422;-67
2023/07/15 11:15:56;;;;;;;3.97;2.27;;;35.10;67.80;;;;;;5050895;28;20846;-67
2023/07/15 11:18:24;;;;;;;1.93;1.83;;;35.10;67.00;;;;;;5051051;28;20418;-65
2023/07/15 11:20:52;;;;;;;2.30;2.10;;;34.90;67.40;;;;;;5051159;28;20622;-66
2023/07/15 11:23:18;;;;;;;2.17;1.97;;;35.10;68.90;;;;;;5050594;28;20466;-67
2023/07/15 11:25:44;;;;;;;3.47;2.13;;;35.20;67.90;;;;;;5050593;28;20418;-67
2023/07/15 11:28:11;;;;;;;3.33;2.10;;;35.30;67.00;;;;;;5050713;28;20429;-67
2023/07/15 11:30:39;;;;;;;3.23;2.10;;;35.50;67.50;;;;;;5050924;28;20413;-66
2023/07/15 11:33:06;;;;;;;3.03;1.83;;;35.20;66.10;;;;;;5050787;28;20434;-68
2023/07/15 11:35:33;;;;;;;1.90;1.80;;;34.90;66.70;;;;;;5050507;28;20421;-66
2023/07/15 11:38:12;;;;;;;2.00;1.90;;;35.00;66.60;;;;;;5050627;28;20418;-66
2023/07/15 11:40:55;;;;;;;2.07;1.97;;;35.10;67.50;;;;;;5050220;28;20476;-66
2023/07/15 11:43:23;;;;;;;1.90;1.80;;;35.20;68.00;;;;;;5050555;28;20521;-66
2023/07/15 11:45:48;;;;;;;2.37;1.97;;;35.30;69.50;;;;;;5050674;28;20926;-65
2023/07/15 11:48:22;;;;;;;5.03;2.07;;;35.50;67.70;;;;;;5050615;28;20482;-66
2023/07/15 11:50:48;;;;;;;3.73;1.97;;;35.60;69.30;;;;;;5050416;28;20175;-65
2023/07/15 11:53:25;;;;;;;2.23;1.90;;;35.70;67.50;;;;;;5050019;28;20595;-66
2023/07/15 11:55:51;;;;;;;2.07;1.83;;;35.90;68.90;;;;;;5050072;28;20171;-66
2023/07/15 11:58:47;;;;;;;2.80;1.80;;;35.80;66.80;;;;;;5050066;28;20430;-66
2023/07/15 12:01:16;;;;;;;1.63;1.50;;;35.70;67.10;;;;;;5049084;28;20302;-66
2023/07/15 12:03:43;;;;;;;3.80;2.00;;;35.80;67.50;;;;;;5049996;28;21046;-67
2023/07/15 12:06:18;;;;;;;3.23;2.00;;;35.90;66.70;;;;;;5049764;28;20410;-66
2023/07/15 12:08:59;;;;;;;2.00;1.90;;;35.90;64.40;;;;;;5049212;28;20409;-66
2023/07/15 12:11:25;;;;;;;3.33;1.90;;;36.00;65.40;;;;;;5049385;28;21034;-66
2023/07/15 12:13:50;;;;;;;1.80;1.70;;;35.70;64.20;;;;;;5049709;28;20422;-67
2023/07/15 12:16:20;;;;;;;2.00;1.60;;;35.60;65.50;;;;;;5049938;28;20215;-65
2023/07/15 12:18:46;;;;;;;2.37;2.03;;;35.70;65.40;;;;;;5049863;28;20233;-65
2023/07/15 12:21:11;;;;;;;4.80;2.20;;;35.80;65.80;;;;;;5048193;28;20462;-66
2023/07/15 12:23:37;;;;;;;2.03;1.93;;;35.80;65.60;;;;;;5049838;28;20191;-66
2023/07/15 12:26:02;;;;;;;1.97;1.87;;;35.80;65.30;;;;;;5049739;28;20184;-66
2023/07/15 12:28:28;;;;;;;2.03;1.93;;;35.70;64.60;;;;;;5047642;28;20200;-67
2023/07/15 12:30:54;;;;;;;1.90;1.80;;;35.80;66.20;;;;;;5049350;28;20188;-66
2023/07/15 12:33:20;;;;;;;2.50;2.30;;;35.80;66.00;;;;;;5047970;28;20473;-66
2023/07/15 12:35:46;;;;;;;2.60;2.00;;;35.60;65.50;;;;;;5049642;28;20187;-65
2023/07/15 12:38:11;;;;;;;3.03;1.87;;;35.60;65.30;;;;;;5049912;28;20238;-65
2023/07/15 12:40:37;;;;;;;2.33;2.13;;;35.60;65.10;;;;;;5049714;28;20453;-66
2023/07/15 12:43:03;;;;;;;3.13;2.10;;;35.70;65.50;;;;;;5049699;28;20947;-66
2023/07/15 12:45:28;;;;;;;2.13;2.03;;;35.70;65.70;;;;;;5049447;28;20734;-68
2023/07/15 12:47:55;;;;;;;2.43;2.23;;;35.60;66.10;;;;;;5049464;28;20414;-66
2023/07/15 12:50:20;;;;;;;1.73;1.63;;;35.70;66.70;;;;;;5047443;28;20206;-65